sensor_id;sensor_type;location;lat;lon;timestamp;P1;durP1;ratioP1;P2;durP2;ratioP2
71104;SDS011;58760;48.716;8.962;2022-12-07T00:03:52;12.45;;;6.70;;
71104;SDS011;58760;48.716;8.962;2022-12-07T00:06:20;12.32;;;7.00;;
71104;SDS011;58760;48.716;8.962;2022-12-07T00:08:46;12.15;;;6.40;;
71104;SDS011;58760;48.716;8.962;2022-12-07T00:11:18;13.45;;;6.55;;
71104;SDS011;58760;48.716;8.962;2022-12-07T00:13:45;13.35;;;6.15;;
71104;SDS011;58760;48.716;8.962;2022-12-07T00:16:14;15.63;;;6.40;;
71104;SDS011;58760;48.716;8.962;2022-12-07T00:18:41;12.02;;;6.40;;
71104;SDS011;58760;48.716;8.962;2022-12-07T00:21:11;12.07;;;6.15;;
71104;SDS011;58760;48.716;8.962;2022-12-07T00:23:41;11.63;;;6.95;;
71104;SDS011;58760;48.716;8.962;2022-12-07T00:26:14;12.85;;;6.63;;
71104;SDS011;58760;48.716;8.962;2022-12-07T00:28:48;13.23;;;7.15;;
71104;SDS011;58760;48.716;8.962;2022-12-07T00:31:15;14.80;;;7.47;;
71104;SDS011;58760;48.716;8.962;2022-12-07T00:33:42;13.48;;;7.38;;
71104;SDS011;58760;48.716;8.962;2022-12-07T00:36:09;13.02;;;7.63;;
71104;SDS011;58760;48.716;8.962;2022-12-07T00:38:36;12.23;;;6.82;;
71104;SDS011;58760;48.716;8.962;2022-12-07T00:41:04;14.65;;;7.68;;
71104;SDS011;58760;48.716;8.962;2022-12-07T00:43:31;14.35;;;7.78;;
71104;SDS011;58760;48.716;8.962;2022-12-07T00:45:57;12.35;;;7.57;;
71104;SDS011;58760;48.716;8.962;2022-12-07T00:48:23;11.77;;;6.78;;
71104;SDS011;58760;48.716;8.962;2022-12-07T00:50:49;12.98;;;8.00;;
71104;SDS011;58760;48.716;8.962;2022-12-07T00:53:15;11.77;;;6.93;;
71104;SDS011;58760;48.716;8.962;2022-12-07T00:55:41;13.75;;;8.13;;
71104;SDS011;58760;48.716;8.962;2022-12-07T00:58:07;13.68;;;7.97;;
71104;SDS011;58760;48.716;8.962;2022-12-07T01:00:33;17.15;;;8.48;;
71104;SDS011;58760;48.716;8.962;2022-12-07T01:03:00;12.88;;;7.95;;
71104;SDS011;58760;48.716;8.962;2022-12-07T01:05:25;17.88;;;7.95;;
71104;SDS011;58760;48.716;8.962;2022-12-07T01:07:51;13.05;;;7.82;;
71104;SDS011;58760;48.716;8.962;2022-12-07T01:10:16;15.13;;;7.97;;
71104;SDS011;58760;48.716;8.962;2022-12-07T01:12:42;14.25;;;7.60;;
71104;SDS011;58760;48.716;8.962;2022-12-07T01:15:07;12.55;;;7.25;;
71104;SDS011;58760;48.716;8.962;2022-12-07T01:17:33;13.35;;;7.22;;
71104;SDS011;58760;48.716;8.962;2022-12-07T01:19:59;14.70;;;8.50;;
71104;SDS011;58760;48.716;8.962;2022-12-07T01:22:25;14.85;;;7.90;;
71104;SDS011;58760;48.716;8.962;2022-12-07T01:24:51;13.05;;;7.88;;
71104;SDS011;58760;48.716;8.962;2022-12-07T01:27:16;13.55;;;7.28;;
71104;SDS011;58760;48.716;8.962;2022-12-07T01:29:41;11.38;;;7.35;;
71104;SDS011;58760;48.716;8.962;2022-12-07T01:32:07;12.32;;;7.45;;
71104;SDS011;58760;48.716;8.962;2022-12-07T01:34:33;14.70;;;7.78;;
71104;SDS011;58760;48.716;8.962;2022-12-07T01:36:58;12.60;;;7.70;;
71104;SDS011;58760;48.716;8.962;2022-12-07T01:39:23;15.23;;;8.40;;
71104;SDS011;58760;48.716;8.962;2022-12-07T01:41:49;12.90;;;7.88;;
71104;SDS011;58760;48.716;8.962;2022-12-07T01:44:16;14.05;;;7.65;;
71104;SDS011;58760;48.716;8.962;2022-12-07T01:46:52;14.57;;;7.75;;
71104;SDS011;58760;48.716;8.962;2022-12-07T01:49:31;12.52;;;7.25;;
71104;SDS011;58760;48.716;8.962;2022-12-07T01:52:38;13.05;;;7.63;;
71104;SDS011;58760;48.716;8.962;2022-12-07T01:55:03;13.07;;;7.18;;
71104;SDS011;58760;48.716;8.962;2022-12-07T01:57:31;13.23;;;7.57;;
71104;SDS011;58760;48.716;8.962;2022-12-07T01:59:59;11.77;;;6.80;;
71104;SDS011;58760;48.716;8.962;2022-12-07T02:02:26;13.55;;;7.80;;
71104;SDS011;58760;48.716;8.962;2022-12-07T02:04:57;11.88;;;6.50;;
71104;SDS011;58760;48.716;8.962;2022-12-07T02:07:25;14.00;;;7.53;;
71104;SDS011;58760;48.716;8.962;2022-12-07T02:09:52;13.93;;;7.43;;
71104;SDS011;58760;48.716;8.962;2022-12-07T02:12:18;12.60;;;7.15;;
71104;SDS011;58760;48.716;8.962;2022-12-07T02:14:45;12.60;;;7.43;;
71104;SDS011;58760;48.716;8.962;2022-12-07T02:17:13;13.40;;;8.27;;
71104;SDS011;58760;48.716;8.962;2022-12-07T02:22:22;13.05;;;7.20;;
71104;SDS011;58760;48.716;8.962;2022-12-07T02:30:17;13.85;;;8.27;;
71104;SDS011;58760;48.716;8.962;2022-12-07T02:35:32;12.68;;;7.40;;
71104;SDS011;58760;48.716;8.962;2022-12-07T02:38:26;13.45;;;7.45;;
71104;SDS011;58760;48.716;8.962;2022-12-07T02:41:04;15.45;;;7.95;;
71104;SDS011;58760;48.716;8.962;2022-12-07T02:43:50;16.90;;;7.93;;
71104;SDS011;58760;48.716;8.962;2022-12-07T02:46:27;13.23;;;7.47;;
71104;SDS011;58760;48.716;8.962;2022-12-07T02:48:56;12.68;;;6.93;;
71104;SDS011;58760;48.716;8.962;2022-12-07T02:51:24;13.93;;;8.63;;
71104;SDS011;58760;48.716;8.962;2022-12-07T02:53:50;15.27;;;8.60;;
71104;SDS011;58760;48.716;8.962;2022-12-07T03:07:04;12.88;;;7.68;;
71104;SDS011;58760;48.716;8.962;2022-12-07T03:09:38;13.65;;;8.27;;
71104;SDS011;58760;48.716;8.962;2022-12-07T03:12:12;12.43;;;7.03;;
71104;SDS011;58760;48.716;8.962;2022-12-07T03:14:55;12.10;;;6.78;;
71104;SDS011;58760;48.716;8.962;2022-12-07T03:17:43;16.35;;;7.40;;
71104;SDS011;58760;48.716;8.962;2022-12-07T03:20:11;14.18;;;7.60;;
71104;SDS011;58760;48.716;8.962;2022-12-07T03:22:40;13.13;;;8.35;;
71104;SDS011;58760;48.716;8.962;2022-12-07T03:25:10;12.52;;;6.88;;
71104;SDS011;58760;48.716;8.962;2022-12-07T03:27:40;12.82;;;6.50;;
71104;SDS011;58760;48.716;8.962;2022-12-07T03:30:18;14.07;;;6.82;;
71104;SDS011;58760;48.716;8.962;2022-12-07T03:32:57;12.85;;;7.18;;
71104;SDS011;58760;48.716;8.962;2022-12-07T03:35:32;11.77;;;6.35;;
71104;SDS011;58760;48.716;8.962;2022-12-07T03:43:33;13.65;;;6.80;;
71104;SDS011;58760;48.716;8.962;2022-12-07T03:46:17;12.80;;;6.57;;
71104;SDS011;58760;48.716;8.962;2022-12-07T03:49:27;12.50;;;6.70;;
71104;SDS011;58760;48.716;8.962;2022-12-07T03:57:10;11.25;;;6.32;;
71104;SDS011;58760;48.716;8.962;2022-12-07T03:59:37;14.10;;;7.70;;
71104;SDS011;58760;48.716;8.962;2022-12-07T04:02:05;11.27;;;6.70;;
71104;SDS011;58760;48.716;8.962;2022-12-07T04:04:32;12.23;;;6.63;;
71104;SDS011;58760;48.716;8.962;2022-12-07T04:06:58;12.68;;;6.95;;
71104;SDS011;58760;48.716;8.962;2022-12-07T04:09:23;9.90;;;6.15;;
71104;SDS011;58760;48.716;8.962;2022-12-07T04:11:49;10.43;;;6.18;;
71104;SDS011;58760;48.716;8.962;2022-12-07T04:14:14;12.38;;;6.35;;
71104;SDS011;58760;48.716;8.962;2022-12-07T04:16:43;9.70;;;5.75;;
71104;SDS011;58760;48.716;8.962;2022-12-07T04:19:09;11.57;;;7.15;;
71104;SDS011;58760;48.716;8.962;2022-12-07T04:21:35;11.82;;;6.07;;
71104;SDS011;58760;48.716;8.962;2022-12-07T04:24:00;10.60;;;5.85;;
71104;SDS011;58760;48.716;8.962;2022-12-07T04:26:25;10.75;;;6.10;;
71104;SDS011;58760;48.716;8.962;2022-12-07T04:28:51;11.85;;;6.07;;
71104;SDS011;58760;48.716;8.962;2022-12-07T04:31:16;10.77;;;6.05;;
71104;SDS011;58760;48.716;8.962;2022-12-07T04:33:41;11.52;;;6.50;;
71104;SDS011;58760;48.716;8.962;2022-12-07T04:36:07;11.35;;;5.72;;
71104;SDS011;58760;48.716;8.962;2022-12-07T04:38:32;10.68;;;5.78;;
71104;SDS011;58760;48.716;8.962;2022-12-07T04:40:58;9.93;;;5.53;;
71104;SDS011;58760;48.716;8.962;2022-12-07T04:43:23;10.55;;;5.65;;
71104;SDS011;58760;48.716;8.962;2022-12-07T04:45:48;9.93;;;5.43;;
71104;SDS011;58760;48.716;8.962;2022-12-07T04:48:14;12.45;;;5.63;;
71104;SDS011;58760;48.716;8.962;2022-12-07T04:50:40;11.55;;;6.10;;
71104;SDS011;58760;48.716;8.962;2022-12-07T04:53:05;11.85;;;5.53;;
71104;SDS011;58760;48.716;8.962;2022-12-07T04:55:30;12.40;;;5.97;;
71104;SDS011;58760;48.716;8.962;2022-12-07T04:57:56;10.48;;;5.80;;
71104;SDS011;58760;48.716;8.962;2022-12-07T05:00:21;13.30;;;6.72;;
71104;SDS011;58760;48.716;8.962;2022-12-07T05:02:47;13.02;;;6.10;;
71104;SDS011;58760;48.716;8.962;2022-12-07T05:05:12;12.63;;;6.85;;
71104;SDS011;58760;48.716;8.962;2022-12-07T05:07:38;13.35;;;6.72;;
71104;SDS011;58760;48.716;8.962;2022-12-07T05:10:03;12.20;;;6.65;;
71104;SDS011;58760;48.716;8.962;2022-12-07T05:12:29;12.80;;;6.63;;
71104;SDS011;58760;48.716;8.962;2022-12-07T05:14:55;12.88;;;6.97;;
71104;SDS011;58760;48.716;8.962;2022-12-07T05:17:20;11.57;;;6.38;;
71104;SDS011;58760;48.716;8.962;2022-12-07T05:19:45;12.35;;;6.55;;
71104;SDS011;58760;48.716;8.962;2022-12-07T05:22:11;13.43;;;6.50;;
71104;SDS011;58760;48.716;8.962;2022-12-07T05:24:36;11.13;;;6.20;;
71104;SDS011;58760;48.716;8.962;2022-12-07T05:27:02;13.15;;;6.50;;
71104;SDS011;58760;48.716;8.962;2022-12-07T05:29:27;12.05;;;6.50;;
71104;SDS011;58760;48.716;8.962;2022-12-07T05:31:52;10.95;;;6.38;;
71104;SDS011;58760;48.716;8.962;2022-12-07T05:34:18;12.65;;;6.72;;
71104;SDS011;58760;48.716;8.962;2022-12-07T05:36:43;10.80;;;6.05;;
71104;SDS011;58760;48.716;8.962;2022-12-07T05:39:09;11.57;;;5.93;;
71104;SDS011;58760;48.716;8.962;2022-12-07T05:41:35;10.52;;;5.68;;
71104;SDS011;58760;48.716;8.962;2022-12-07T05:44:19;10.98;;;5.45;;
71104;SDS011;58760;48.716;8.962;2022-12-07T05:46:44;11.32;;;5.53;;
71104;SDS011;58760;48.716;8.962;2022-12-07T05:49:09;11.73;;;5.93;;
71104;SDS011;58760;48.716;8.962;2022-12-07T05:51:35;11.65;;;5.45;;
71104;SDS011;58760;48.716;8.962;2022-12-07T05:54:00;11.48;;;5.70;;
71104;SDS011;58760;48.716;8.962;2022-12-07T05:56:25;10.75;;;5.10;;
71104;SDS011;58760;48.716;8.962;2022-12-07T05:58:52;11.05;;;5.25;;
71104;SDS011;58760;48.716;8.962;2022-12-07T06:01:36;10.30;;;5.35;;
71104;SDS011;58760;48.716;8.962;2022-12-07T06:04:01;10.38;;;5.25;;
71104;SDS011;58760;48.716;8.962;2022-12-07T06:06:26;9.52;;;4.80;;
71104;SDS011;58760;48.716;8.962;2022-12-07T06:08:52;10.48;;;5.40;;
71104;SDS011;58760;48.716;8.962;2022-12-07T06:11:17;9.70;;;5.10;;
71104;SDS011;58760;48.716;8.962;2022-12-07T06:14:01;11.05;;;5.18;;
71104;SDS011;58760;48.716;8.962;2022-12-07T06:16:27;10.25;;;5.07;;
71104;SDS011;58760;48.716;8.962;2022-12-07T06:18:52;9.68;;;5.25;;
71104;SDS011;58760;48.716;8.962;2022-12-07T06:21:17;10.73;;;5.38;;
71104;SDS011;58760;48.716;8.962;2022-12-07T06:23:43;9.77;;;4.90;;
71104;SDS011;58760;48.716;8.962;2022-12-07T06:26:08;10.32;;;4.72;;
71104;SDS011;58760;48.716;8.962;2022-12-07T06:28:33;10.32;;;4.70;;
71104;SDS011;58760;48.716;8.962;2022-12-07T06:30:59;10.35;;;5.50;;
71104;SDS011;58760;48.716;8.962;2022-12-07T06:33:28;10.05;;;4.82;;
71104;SDS011;58760;48.716;8.962;2022-12-07T06:35:53;11.65;;;4.97;;
71104;SDS011;58760;48.716;8.962;2022-12-07T06:38:19;9.07;;;4.75;;
71104;SDS011;58760;48.716;8.962;2022-12-07T06:40:44;8.68;;;4.82;;
71104;SDS011;58760;48.716;8.962;2022-12-07T06:43:10;10.02;;;4.88;;
71104;SDS011;58760;48.716;8.962;2022-12-07T06:45:35;10.20;;;4.90;;
71104;SDS011;58760;48.716;8.962;2022-12-07T06:48:01;9.85;;;4.93;;
71104;SDS011;58760;48.716;8.962;2022-12-07T06:50:26;8.98;;;4.25;;
71104;SDS011;58760;48.716;8.962;2022-12-07T06:52:51;9.68;;;5.13;;
71104;SDS011;58760;48.716;8.962;2022-12-07T06:55:17;9.10;;;4.78;;
71104;SDS011;58760;48.716;8.962;2022-12-07T06:57:43;8.45;;;4.45;;
71104;SDS011;58760;48.716;8.962;2022-12-07T07:00:08;10.32;;;4.70;;
71104;SDS011;58760;48.716;8.962;2022-12-07T07:02:34;8.82;;;4.40;;
71104;SDS011;58760;48.716;8.962;2022-12-07T07:04:59;10.43;;;4.75;;
71104;SDS011;58760;48.716;8.962;2022-12-07T07:07:25;10.43;;;5.93;;
71104;SDS011;58760;48.716;8.962;2022-12-07T07:09:50;11.15;;;5.00;;
71104;SDS011;58760;48.716;8.962;2022-12-07T07:12:15;11.88;;;5.40;;
71104;SDS011;58760;48.716;8.962;2022-12-07T07:14:41;17.63;;;5.78;;
71104;SDS011;58760;48.716;8.962;2022-12-07T07:17:07;12.45;;;5.40;;
71104;SDS011;58760;48.716;8.962;2022-12-07T07:19:32;14.75;;;6.55;;
71104;SDS011;58760;48.716;8.962;2022-12-07T07:21:57;17.40;;;6.40;;
71104;SDS011;58760;48.716;8.962;2022-12-07T07:24:23;15.63;;;6.03;;
71104;SDS011;58760;48.716;8.962;2022-12-07T07:26:48;17.35;;;6.93;;
71104;SDS011;58760;48.716;8.962;2022-12-07T07:29:13;14.13;;;6.70;;
71104;SDS011;58760;48.716;8.962;2022-12-07T07:31:39;15.10;;;6.80;;
71104;SDS011;58760;48.716;8.962;2022-12-07T07:34:04;16.75;;;7.45;;
71104;SDS011;58760;48.716;8.962;2022-12-07T07:36:30;16.17;;;8.30;;
71104;SDS011;58760;48.716;8.962;2022-12-07T07:38:55;16.13;;;8.40;;
71104;SDS011;58760;48.716;8.962;2022-12-07T07:41:20;14.23;;;7.75;;
71104;SDS011;58760;48.716;8.962;2022-12-07T07:43:46;14.50;;;7.47;;
71104;SDS011;58760;48.716;8.962;2022-12-07T07:46:11;13.23;;;7.03;;
71104;SDS011;58760;48.716;8.962;2022-12-07T07:48:37;18.20;;;6.85;;
71104;SDS011;58760;48.716;8.962;2022-12-07T07:51:08;15.15;;;6.72;;
71104;SDS011;58760;48.716;8.962;2022-12-07T07:53:34;12.65;;;5.97;;
71104;SDS011;58760;48.716;8.962;2022-12-07T07:55:59;13.18;;;6.32;;
71104;SDS011;58760;48.716;8.962;2022-12-07T07:58:24;16.15;;;6.53;;
71104;SDS011;58760;48.716;8.962;2022-12-07T08:00:50;12.25;;;6.25;;
71104;SDS011;58760;48.716;8.962;2022-12-07T08:03:15;14.30;;;6.72;;
71104;SDS011;58760;48.716;8.962;2022-12-07T08:05:41;12.85;;;6.53;;
71104;SDS011;58760;48.716;8.962;2022-12-07T08:08:06;12.80;;;6.22;;
71104;SDS011;58760;48.716;8.962;2022-12-07T08:10:32;14.45;;;6.22;;
71104;SDS011;58760;48.716;8.962;2022-12-07T08:12:58;9.57;;;4.95;;
71104;SDS011;58760;48.716;8.962;2022-12-07T08:15:44;11.93;;;5.72;;
71104;SDS011;58760;48.716;8.962;2022-12-07T08:18:12;12.23;;;5.60;;
71104;SDS011;58760;48.716;8.962;2022-12-07T08:20:38;11.85;;;5.72;;
71104;SDS011;58760;48.716;8.962;2022-12-07T08:23:04;12.98;;;5.70;;
71104;SDS011;58760;48.716;8.962;2022-12-07T08:25:31;11.07;;;6.03;;
71104;SDS011;58760;48.716;8.962;2022-12-07T08:27:57;15.40;;;6.78;;
71104;SDS011;58760;48.716;8.962;2022-12-07T08:30:22;12.05;;;6.05;;
71104;SDS011;58760;48.716;8.962;2022-12-07T08:32:48;11.15;;;5.85;;
71104;SDS011;58760;48.716;8.962;2022-12-07T08:35:14;12.25;;;6.10;;
71104;SDS011;58760;48.716;8.962;2022-12-07T08:37:40;12.07;;;6.10;;
71104;SDS011;58760;48.716;8.962;2022-12-07T08:40:06;13.85;;;5.55;;
71104;SDS011;58760;48.716;8.962;2022-12-07T08:42:33;10.95;;;5.38;;
71104;SDS011;58760;48.716;8.962;2022-12-07T08:45:05;10.98;;;6.03;;
71104;SDS011;58760;48.716;8.962;2022-12-07T08:47:32;13.02;;;5.97;;
71104;SDS011;58760;48.716;8.962;2022-12-07T08:49:59;11.20;;;5.47;;
71104;SDS011;58760;48.716;8.962;2022-12-07T08:52:29;11.77;;;5.68;;
71104;SDS011;58760;48.716;8.962;2022-12-07T08:54:55;12.15;;;6.22;;
71104;SDS011;58760;48.716;8.962;2022-12-07T08:57:21;13.13;;;5.32;;
71104;SDS011;58760;48.716;8.962;2022-12-07T08:59:46;11.90;;;6.03;;
71104;SDS011;58760;48.716;8.962;2022-12-07T09:02:11;11.68;;;5.50;;
71104;SDS011;58760;48.716;8.962;2022-12-07T09:04:37;12.02;;;5.93;;
71104;SDS011;58760;48.716;8.962;2022-12-07T09:07:03;13.20;;;5.93;;
71104;SDS011;58760;48.716;8.962;2022-12-07T09:09:29;11.05;;;4.63;;
71104;SDS011;58760;48.716;8.962;2022-12-07T09:11:54;9.95;;;5.00;;
71104;SDS011;58760;48.716;8.962;2022-12-07T09:14:20;10.07;;;4.75;;
71104;SDS011;58760;48.716;8.962;2022-12-07T09:16:45;13.30;;;4.95;;
71104;SDS011;58760;48.716;8.962;2022-12-07T09:19:11;12.63;;;5.18;;
71104;SDS011;58760;48.716;8.962;2022-12-07T09:21:36;9.32;;;4.22;;
71104;SDS011;58760;48.716;8.962;2022-12-07T09:24:01;11.45;;;4.90;;
71104;SDS011;58760;48.716;8.962;2022-12-07T09:26:27;9.05;;;4.60;;
71104;SDS011;58760;48.716;8.962;2022-12-07T09:28:52;10.40;;;4.43;;
71104;SDS011;58760;48.716;8.962;2022-12-07T09:31:18;8.85;;;4.55;;
71104;SDS011;58760;48.716;8.962;2022-12-07T09:33:43;11.25;;;4.95;;
71104;SDS011;58760;48.716;8.962;2022-12-07T09:36:09;7.97;;;3.75;;
71104;SDS011;58760;48.716;8.962;2022-12-07T09:38:35;10.70;;;5.55;;
71104;SDS011;58760;48.716;8.962;2022-12-07T09:41:05;9.02;;;4.05;;
71104;SDS011;58760;48.716;8.962;2022-12-07T09:43:31;8.10;;;4.28;;
71104;SDS011;58760;48.716;8.962;2022-12-07T09:45:59;14.75;;;4.75;;
71104;SDS011;58760;48.716;8.962;2022-12-07T09:48:28;8.52;;;4.18;;
71104;SDS011;58760;48.716;8.962;2022-12-07T09:50:57;9.73;;;4.20;;
71104;SDS011;58760;48.716;8.962;2022-12-07T09:53:28;10.48;;;4.35;;
71104;SDS011;58760;48.716;8.962;2022-12-07T09:56:01;8.60;;;4.05;;
71104;SDS011;58760;48.716;8.962;2022-12-07T09:58:28;12.32;;;4.28;;
71104;SDS011;58760;48.716;8.962;2022-12-07T10:03:32;8.15;;;3.67;;
71104;SDS011;58760;48.716;8.962;2022-12-07T10:05:58;7.78;;;3.58;;
71104;SDS011;58760;48.716;8.962;2022-12-07T10:08:26;8.77;;;4.05;;
71104;SDS011;58760;48.716;8.962;2022-12-07T10:10:52;10.32;;;4.28;;
71104;SDS011;58760;48.716;8.962;2022-12-07T10:13:40;9.70;;;4.63;;
71104;SDS011;58760;48.716;8.962;2022-12-07T10:18:58;10.43;;;5.63;;
71104;SDS011;58760;48.716;8.962;2022-12-07T10:21:58;8.30;;;4.05;;
71104;SDS011;58760;48.716;8.962;2022-12-07T10:24:24;12.90;;;6.00;;
71104;SDS011;58760;48.716;8.962;2022-12-07T10:26:51;6.60;;;3.40;;
71104;SDS011;58760;48.716;8.962;2022-12-07T10:31:50;11.50;;;4.50;;
71104;SDS011;58760;48.716;8.962;2022-12-07T10:36:54;9.13;;;3.55;;
71104;SDS011;58760;48.716;8.962;2022-12-07T10:39:41;6.50;;;2.70;;
71104;SDS011;58760;48.716;8.962;2022-12-07T10:42:24;7.05;;;3.20;;
71104;SDS011;58760;48.716;8.962;2022-12-07T10:47:47;6.65;;;2.90;;
71104;SDS011;58760;48.716;8.962;2022-12-07T10:56:22;6.22;;;2.58;;
71104;SDS011;58760;48.716;8.962;2022-12-07T11:25:40;6.57;;;2.58;;
71104;SDS011;58760;48.716;8.962;2022-12-07T11:28:28;5.65;;;2.22;;
71104;SDS011;58760;48.716;8.962;2022-12-07T11:31:12;5.75;;;2.10;;
71104;SDS011;58760;48.716;8.962;2022-12-07T11:36:46;5.70;;;2.28;;
71104;SDS011;58760;48.716;8.962;2022-12-07T11:41:43;7.80;;;3.10;;
71104;SDS011;58760;48.716;8.962;2022-12-07T11:47:07;5.18;;;1.95;;
71104;SDS011;58760;48.716;8.962;2022-12-07T11:49:53;4.53;;;1.80;;
71104;SDS011;58760;48.716;8.962;2022-12-07T12:06:36;5.00;;;2.08;;
71104;SDS011;58760;48.716;8.962;2022-12-07T12:09:09;4.47;;;2.13;;
71104;SDS011;58760;48.716;8.962;2022-12-07T12:14:35;4.65;;;2.28;;
71104;SDS011;58760;48.716;8.962;2022-12-07T12:20:01;5.15;;;2.20;;
71104;SDS011;58760;48.716;8.962;2022-12-07T12:22:37;5.95;;;2.70;;
71104;SDS011;58760;48.716;8.962;2022-12-07T12:25:07;3.53;;;1.60;;
71104;SDS011;58760;48.716;8.962;2022-12-07T12:27:49;3.97;;;2.00;;
71104;SDS011;58760;48.716;8.962;2022-12-07T12:32:50;5.20;;;2.22;;
71104;SDS011;58760;48.716;8.962;2022-12-07T12:40:48;4.45;;;1.80;;
71104;SDS011;58760;48.716;8.962;2022-12-07T12:49:40;4.20;;;1.98;;
71104;SDS011;58760;48.716;8.962;2022-12-07T12:54:20;4.40;;;1.98;;
71104;SDS011;58760;48.716;8.962;2022-12-07T13:02:27;5.45;;;2.47;;
71104;SDS011;58760;48.716;8.962;2022-12-07T13:10:22;4.65;;;1.95;;
71104;SDS011;58760;48.716;8.962;2022-12-07T13:13:05;5.38;;;2.20;;
71104;SDS011;58760;48.716;8.962;2022-12-07T13:15:49;5.15;;;2.35;;
71104;SDS011;58760;48.716;8.962;2022-12-07T13:18:23;5.47;;;2.50;;
71104;SDS011;58760;48.716;8.962;2022-12-07T13:20:55;5.53;;;2.30;;
71104;SDS011;58760;48.716;8.962;2022-12-07T13:23:35;6.15;;;2.20;;
71104;SDS011;58760;48.716;8.962;2022-12-07T13:26:06;4.88;;;2.20;;
71104;SDS011;58760;48.716;8.962;2022-12-07T13:28:38;4.82;;;2.30;;
71104;SDS011;58760;48.716;8.962;2022-12-07T13:33:56;6.13;;;2.88;;
71104;SDS011;58760;48.716;8.962;2022-12-07T13:36:26;5.20;;;2.45;;
71104;SDS011;58760;48.716;8.962;2022-12-07T13:39:00;5.10;;;2.20;;
71104;SDS011;58760;48.716;8.962;2022-12-07T13:41:56;6.38;;;2.67;;
71104;SDS011;58760;48.716;8.962;2022-12-07T13:44:23;6.57;;;3.33;;
71104;SDS011;58760;48.716;8.962;2022-12-07T13:46:56;9.38;;;3.30;;
71104;SDS011;58760;48.716;8.962;2022-12-07T13:49:32;6.97;;;3.03;;
71104;SDS011;58760;48.716;8.962;2022-12-07T13:52:11;8.75;;;3.47;;
71104;SDS011;58760;48.716;8.962;2022-12-07T13:57:13;7.03;;;2.70;;
71104;SDS011;58760;48.716;8.962;2022-12-07T13:59:39;8.40;;;3.03;;
71104;SDS011;58760;48.716;8.962;2022-12-07T14:02:18;9.18;;;3.90;;
71104;SDS011;58760;48.716;8.962;2022-12-07T14:04:45;10.02;;;4.88;;
71104;SDS011;58760;48.716;8.962;2022-12-07T14:07:27;11.18;;;4.25;;
71104;SDS011;58760;48.716;8.962;2022-12-07T14:10:03;22.60;;;8.93;;
71104;SDS011;58760;48.716;8.962;2022-12-07T14:12:31;21.20;;;8.63;;
71104;SDS011;58760;48.716;8.962;2022-12-07T14:14:58;11.57;;;4.82;;
71104;SDS011;58760;48.716;8.962;2022-12-07T14:17:26;8.20;;;3.58;;
71104;SDS011;58760;48.716;8.962;2022-12-07T14:19:56;8.45;;;3.97;;
71104;SDS011;58760;48.716;8.962;2022-12-07T14:22:32;8.77;;;3.70;;
71104;SDS011;58760;48.716;8.962;2022-12-07T14:27:39;9.55;;;3.83;;
71104;SDS011;58760;48.716;8.962;2022-12-07T14:30:15;7.60;;;3.33;;
71104;SDS011;58760;48.716;8.962;2022-12-07T14:32:42;7.72;;;3.75;;
71104;SDS011;58760;48.716;8.962;2022-12-07T14:35:13;9.88;;;4.65;;
71104;SDS011;58760;48.716;8.962;2022-12-07T14:37:40;8.07;;;3.63;;
71104;SDS011;58760;48.716;8.962;2022-12-07T14:40:12;9.10;;;3.40;;
71104;SDS011;58760;48.716;8.962;2022-12-07T14:42:43;7.28;;;3.22;;
71104;SDS011;58760;48.716;8.962;2022-12-07T14:45:15;6.30;;;2.63;;
71104;SDS011;58760;48.716;8.962;2022-12-07T14:47:43;7.43;;;3.60;;
71104;SDS011;58760;48.716;8.962;2022-12-07T14:50:11;6.53;;;3.20;;
71104;SDS011;58760;48.716;8.962;2022-12-07T14:52:38;6.53;;;3.30;;
71104;SDS011;58760;48.716;8.962;2022-12-07T14:55:04;9.05;;;4.50;;
71104;SDS011;58760;48.716;8.962;2022-12-07T14:57:37;9.50;;;4.47;;
71104;SDS011;58760;48.716;8.962;2022-12-07T15:00:02;12.35;;;4.97;;
71104;SDS011;58760;48.716;8.962;2022-12-07T15:02:29;9.10;;;4.93;;
71104;SDS011;58760;48.716;8.962;2022-12-07T15:04:54;11.10;;;6.03;;
71104;SDS011;58760;48.716;8.962;2022-12-07T15:07:20;10.90;;;5.45;;
71104;SDS011;58760;48.716;8.962;2022-12-07T15:09:47;9.60;;;4.97;;
71104;SDS011;58760;48.716;8.962;2022-12-07T15:12:13;10.23;;;5.38;;
71104;SDS011;58760;48.716;8.962;2022-12-07T15:14:38;11.32;;;5.55;;
71104;SDS011;58760;48.716;8.962;2022-12-07T15:17:04;14.10;;;5.53;;
71104;SDS011;58760;48.716;8.962;2022-12-07T15:19:29;14.57;;;5.82;;
71104;SDS011;58760;48.716;8.962;2022-12-07T15:21:55;12.88;;;5.53;;
71104;SDS011;58760;48.716;8.962;2022-12-07T15:24:21;11.68;;;5.03;;
71104;SDS011;58760;48.716;8.962;2022-12-07T15:26:46;12.35;;;4.68;;
71104;SDS011;58760;48.716;8.962;2022-12-07T15:29:12;10.75;;;4.20;;
71104;SDS011;58760;48.716;8.962;2022-12-07T15:31:39;11.75;;;5.10;;
71104;SDS011;58760;48.716;8.962;2022-12-07T15:34:04;11.73;;;5.70;;
71104;SDS011;58760;48.716;8.962;2022-12-07T15:36:31;9.52;;;5.13;;
71104;SDS011;58760;48.716;8.962;2022-12-07T15:38:57;14.60;;;5.72;;
71104;SDS011;58760;48.716;8.962;2022-12-07T15:41:23;11.20;;;5.38;;
71104;SDS011;58760;48.716;8.962;2022-12-07T15:43:49;11.70;;;6.25;;
71104;SDS011;58760;48.716;8.962;2022-12-07T15:46:35;10.73;;;5.82;;
71104;SDS011;58760;48.716;8.962;2022-12-07T15:49:03;19.55;;;7.05;;
71104;SDS011;58760;48.716;8.962;2022-12-07T15:51:34;13.77;;;6.22;;
71104;SDS011;58760;48.716;8.962;2022-12-07T15:53:59;13.23;;;6.60;;
71104;SDS011;58760;48.716;8.962;2022-12-07T15:56:25;11.95;;;5.95;;
71104;SDS011;58760;48.716;8.962;2022-12-07T15:58:50;13.20;;;6.10;;
71104;SDS011;58760;48.716;8.962;2022-12-07T16:01:16;14.45;;;7.15;;
71104;SDS011;58760;48.716;8.962;2022-12-07T16:03:43;28.50;;;11.93;;
71104;SDS011;58760;48.716;8.962;2022-12-07T16:06:09;14.38;;;7.43;;
71104;SDS011;58760;48.716;8.962;2022-12-07T16:08:35;14.50;;;6.53;;
71104;SDS011;58760;48.716;8.962;2022-12-07T16:11:05;10.65;;;5.57;;
71104;SDS011;58760;48.716;8.962;2022-12-07T16:13:31;11.45;;;6.13;;
71104;SDS011;58760;48.716;8.962;2022-12-07T16:16:01;11.95;;;5.82;;
71104;SDS011;58760;48.716;8.962;2022-12-07T16:18:28;11.18;;;6.13;;
71104;SDS011;58760;48.716;8.962;2022-12-07T16:20:54;10.93;;;5.88;;
71104;SDS011;58760;48.716;8.962;2022-12-07T16:23:19;14.30;;;6.55;;
71104;SDS011;58760;48.716;8.962;2022-12-07T16:25:44;15.70;;;6.78;;
71104;SDS011;58760;48.716;8.962;2022-12-07T16:28:10;13.45;;;6.60;;
71104;SDS011;58760;48.716;8.962;2022-12-07T16:30:35;12.48;;;6.70;;
71104;SDS011;58760;48.716;8.962;2022-12-07T16:33:01;12.65;;;6.57;;
71104;SDS011;58760;48.716;8.962;2022-12-07T16:35:26;13.15;;;7.20;;
71104;SDS011;58760;48.716;8.962;2022-12-07T16:37:52;14.38;;;6.50;;
71104;SDS011;58760;48.716;8.962;2022-12-07T16:40:17;11.68;;;5.93;;
71104;SDS011;58760;48.716;8.962;2022-12-07T16:42:42;13.43;;;5.55;;
71104;SDS011;58760;48.716;8.962;2022-12-07T16:45:08;13.15;;;5.80;;
71104;SDS011;58760;48.716;8.962;2022-12-07T16:47:36;13.23;;;6.05;;
71104;SDS011;58760;48.716;8.962;2022-12-07T16:50:02;12.50;;;5.95;;
71104;SDS011;58760;48.716;8.962;2022-12-07T16:52:28;13.35;;;6.00;;
71104;SDS011;58760;48.716;8.962;2022-12-07T16:54:54;10.90;;;5.20;;
71104;SDS011;58760;48.716;8.962;2022-12-07T16:57:19;10.88;;;5.30;;
71104;SDS011;58760;48.716;8.962;2022-12-07T16:59:44;11.73;;;5.75;;
71104;SDS011;58760;48.716;8.962;2022-12-07T17:02:10;12.98;;;5.78;;
71104;SDS011;58760;48.716;8.962;2022-12-07T17:04:36;11.88;;;5.82;;
71104;SDS011;58760;48.716;8.962;2022-12-07T17:07:04;12.38;;;6.35;;
71104;SDS011;58760;48.716;8.962;2022-12-07T17:09:30;11.27;;;5.07;;
71104;SDS011;58760;48.716;8.962;2022-12-07T17:11:56;12.05;;;5.85;;